createdAt,value
2018-11-22T00:00:20.705Z,956.9
2018-11-22T00:01:20.706Z,956.94
2018-11-22T00:02:20.700Z,956.91
2018-11-22T00:03:20.745Z,956.93
2018-11-22T00:04:20.693Z,956.91
2018-11-22T00:05:20.692Z,956.94
2018-11-22T00:06:20.686Z,956.96
2018-11-22T00:07:20.686Z,956.97
2018-11-22T00:08:20.732Z,956.99
2018-11-22T00:09:20.677Z,956.96
2018-11-22T00:10:20.675Z,956.98
2018-11-22T00:11:20.671Z,957.01
2018-11-22T00:12:20.669Z,957.02
2018-11-22T00:13:20.717Z,956.98
2018-11-22T00:14:20.664Z,956.99
2018-11-22T00:15:20.661Z,956.98
2018-11-22T00:16:20.657Z,957.03
2018-11-22T00:17:20.654Z,957.01
2018-11-22T00:18:20.701Z,957.05
2018-11-22T00:19:20.649Z,957.05
2018-11-22T00:20:20.646Z,957.08
2018-11-22T00:21:20.641Z,957.06
2018-11-22T00:22:20.639Z,957.03
2018-11-22T00:23:20.635Z,957.11
2018-11-22T00:24:20.633Z,957.07
2018-11-22T00:25:20.631Z,957.07
2018-11-22T00:26:20.629Z,957.05
2018-11-22T00:27:20.624Z,957.12
2018-11-22T00:28:20.620Z,957.13
2018-11-22T00:29:20.617Z,957.09
2018-11-22T00:30:20.616Z,957.11
2018-11-22T00:31:20.612Z,957.13
2018-11-22T00:32:20.608Z,957.11
2018-11-22T00:33:20.655Z,957.15
2018-11-22T00:34:20.602Z,957.09
2018-11-22T00:35:20.600Z,957.13
2018-11-22T00:36:20.595Z,957.11
2018-11-22T00:37:20.593Z,957.15
2018-11-22T00:38:20.590Z,957.16
2018-11-22T00:39:20.588Z,957.19
2018-11-22T00:40:20.584Z,957.17
2018-11-22T00:41:20.582Z,957.18
2018-11-22T00:42:20.580Z,957.18
2018-11-22T00:43:27.782Z,957.19
2018-11-22T01:15:14.490Z,957.32
2018-11-22T01:16:14.337Z,957.35
2018-11-22T01:17:14.333Z,957.37
2018-11-22T01:18:14.331Z,957.38
2018-11-22T01:19:14.327Z,957.39
2018-11-22T01:20:14.323Z,957.36
2018-11-22T01:21:14.321Z,957.4
2018-11-22T01:22:14.319Z,957.37
2018-11-22T01:23:14.315Z,957.38
2018-11-22T01:24:14.312Z,957.36
2018-11-22T01:25:14.310Z,957.39
2018-11-22T01:26:14.308Z,957.4
2018-11-22T01:27:14.305Z,957.39
2018-11-22T01:28:14.301Z,957.38
2018-11-22T01:29:14.301Z,957.39
2018-11-22T01:30:14.447Z,957.35
2018-11-22T01:31:14.292Z,957.39
2018-11-22T01:32:14.290Z,957.39
2018-11-22T01:33:14.287Z,957.38
2018-11-22T01:34:14.284Z,957.38
2018-11-22T01:35:14.281Z,957.36
2018-11-22T01:36:14.277Z,957.34
2018-11-22T01:37:14.276Z,957.37
2018-11-22T01:38:14.271Z,957.4
2018-11-22T01:39:14.271Z,957.4
2018-11-22T01:40:14.265Z,957.36
2018-11-22T01:41:14.264Z,957.36
2018-11-22T01:42:14.262Z,957.35
2018-11-22T01:43:14.257Z,957.38
2018-11-22T01:44:14.302Z,957.44
2018-11-22T01:45:14.352Z,957.39
2018-11-22T01:46:14.253Z,957.4
2018-11-22T01:47:14.245Z,957.4
2018-11-22T01:48:14.243Z,957.4
2018-11-22T01:49:14.240Z,957.38
2018-11-22T01:50:14.236Z,957.39
2018-11-22T01:51:14.234Z,957.34
2018-11-22T01:52:14.230Z,957.37
2018-11-22T01:53:14.230Z,957.36
2018-11-22T01:54:14.227Z,957.34
2018-11-22T01:55:14.225Z,957.36
2018-11-22T01:56:14.221Z,957.37
2018-11-22T01:57:14.221Z,957.4
2018-11-22T01:58:14.214Z,957.36
2018-11-22T01:59:14.211Z,957.36
2018-11-22T02:00:14.310Z,957.37
2018-11-22T02:01:14.206Z,957.32
2018-11-22T02:02:14.203Z,957.35
2018-11-22T02:03:14.199Z,957.32
2018-11-22T02:04:14.198Z,957.38
2018-11-22T02:05:14.195Z,957.39
2018-11-22T02:06:14.193Z,957.4
2018-11-22T02:07:14.204Z,957.38
2018-11-22T02:08:14.186Z,957.34
2018-11-22T02:09:14.184Z,957.38
2018-11-22T02:10:14.181Z,957.39
2018-11-22T02:11:14.177Z,957.35
2018-11-22T02:12:14.175Z,957.38
2018-11-22T02:13:14.170Z,957.39
2018-11-22T02:14:14.167Z,957.42
2018-11-22T02:15:14.265Z,957.43
2018-11-22T02:16:14.163Z,957.44
2018-11-22T02:17:14.160Z,957.46
2018-11-22T02:18:14.159Z,957.46
2018-11-22T02:19:14.153Z,957.45
2018-11-22T02:20:14.151Z,957.44
2018-11-22T02:21:14.149Z,957.45
2018-11-22T02:22:14.145Z,957.46
2018-11-22T02:23:14.143Z,957.48
2018-11-22T02:24:14.141Z,957.45
2018-11-22T02:25:14.138Z,957.47
2018-11-22T02:26:14.138Z,957.45
2018-11-22T02:27:14.130Z,957.47
2018-11-22T02:28:14.128Z,957.46
2018-11-22T02:29:14.124Z,957.46
2018-11-22T02:30:14.221Z,957.46
2018-11-22T02:31:14.119Z,957.49
2018-11-22T02:32:14.167Z,957.49
2018-11-22T02:33:14.112Z,957.51
2018-11-22T02:34:14.110Z,957.46
2018-11-22T02:35:14.209Z,957.49
2018-11-22T02:36:14.104Z,957.51
2018-11-22T02:37:14.100Z,957.54
2018-11-22T02:38:14.099Z,957.53
2018-11-22T02:39:14.095Z,957.52
2018-11-22T02:40:14.095Z,957.52
2018-11-22T02:41:14.089Z,957.55
2018-11-22T02:42:14.085Z,957.52
2018-11-22T02:43:14.083Z,957.5
2018-11-22T02:44:14.080Z,957.52
2018-11-22T02:45:14.078Z,957.53
2018-11-22T02:46:14.076Z,957.47
2018-11-22T02:47:14.072Z,957.48
2018-11-22T02:48:14.072Z,957.49
2018-11-22T02:49:14.069Z,957.48
2018-11-22T02:50:14.162Z,957.52
2018-11-22T02:51:14.059Z,957.53
2018-11-22T02:52:14.058Z,957.53
2018-11-22T02:53:14.052Z,957.54
2018-11-22T02:54:14.049Z,957.51
2018-11-22T02:55:14.049Z,957.54
2018-11-22T02:56:14.044Z,957.5
2018-11-22T02:57:14.041Z,957.54
2018-11-22T02:58:14.037Z,957.51
2018-11-22T02:59:14.039Z,957.54
2018-11-22T03:00:14.031Z,957.54
2018-11-22T03:01:14.031Z,957.5
2018-11-22T03:02:14.026Z,957.5
2018-11-22T03:03:14.023Z,957.51
2018-11-22T03:04:14.020Z,957.53
2018-11-22T03:05:14.117Z,957.54
2018-11-22T03:06:14.014Z,957.54
2018-11-22T03:07:14.011Z,957.53
2018-11-22T03:08:14.008Z,957.53
2018-11-22T03:09:14.005Z,957.53
2018-11-22T03:10:14.002Z,957.54
2018-11-22T03:11:13.998Z,957.52
2018-11-22T03:12:13.994Z,957.58
2018-11-22T03:13:13.990Z,957.54
2018-11-22T03:14:13.989Z,957.57
2018-11-22T03:15:13.986Z,957.57
2018-11-22T03:16:13.984Z,957.57
2018-11-22T03:17:13.978Z,957.55
2018-11-22T03:18:13.976Z,957.59
2018-11-22T03:19:13.975Z,957.6
2018-11-22T03:20:14.072Z,957.56
2018-11-22T03:21:13.970Z,957.57
2018-11-22T03:22:13.966Z,957.58
2018-11-22T03:23:13.965Z,957.59
2018-11-22T03:24:13.962Z,957.59
2018-11-22T03:25:13.959Z,957.6
2018-11-22T03:26:13.955Z,957.58
2018-11-22T03:27:13.953Z,957.61
2018-11-22T03:28:13.953Z,957.58
2018-11-22T03:29:13.949Z,957.55
2018-11-22T03:30:13.997Z,957.61
2018-11-22T03:31:13.941Z,957.55
2018-11-22T03:32:13.940Z,957.57
2018-11-22T03:33:13.938Z,957.62
2018-11-22T03:34:13.936Z,957.59
2018-11-22T03:35:14.033Z,957.58
2018-11-22T03:36:13.930Z,957.61
2018-11-22T03:37:13.926Z,957.6
2018-11-22T03:38:13.923Z,957.65
2018-11-22T03:39:13.921Z,957.6
2018-11-22T03:40:13.924Z,957.61
2018-11-22T03:41:13.915Z,957.6
2018-11-22T03:42:13.922Z,957.6
2018-11-22T03:43:13.909Z,957.63
2018-11-22T03:44:13.916Z,957.58
2018-11-22T03:45:13.905Z,957.61
2018-11-22T03:46:13.903Z,957.61
2018-11-22T03:47:13.900Z,957.59
2018-11-22T03:48:13.897Z,957.57
2018-11-22T03:49:13.893Z,957.61
2018-11-22T03:50:13.942Z,957.6
2018-11-22T03:51:13.889Z,957.6
2018-11-22T03:52:13.888Z,957.64
2018-11-22T03:53:13.884Z,957.63
2018-11-22T03:54:13.881Z,957.59
2018-11-22T03:55:14.181Z,957.61
2018-11-22T03:56:13.877Z,957.59
2018-11-22T03:57:13.873Z,957.65
2018-11-22T03:58:13.872Z,957.62
2018-11-22T03:59:13.867Z,957.62
2018-11-22T04:00:13.865Z,957.65
2018-11-22T04:01:13.861Z,957.63
2018-11-22T04:02:13.858Z,957.65
2018-11-22T04:03:13.873Z,957.66
2018-11-22T04:04:13.854Z,957.65
2018-11-22T04:05:13.901Z,957.64
2018-11-22T04:06:13.849Z,957.65
2018-11-22T04:07:13.847Z,957.64
2018-11-22T04:08:13.847Z,957.63
2018-11-22T04:09:13.839Z,957.64
2018-11-22T04:10:13.839Z,957.61
2018-11-22T04:11:13.832Z,957.66
2018-11-22T04:12:13.828Z,957.62
2018-11-22T04:13:13.832Z,957.67
2018-11-22T04:14:13.824Z,957.63
2018-11-22T04:15:13.823Z,957.66
2018-11-22T04:16:13.818Z,957.65
2018-11-22T04:17:13.815Z,957.66
2018-11-22T04:18:13.812Z,957.65
2018-11-22T04:19:13.808Z,957.67
2018-11-22T04:20:13.856Z,957.64
2018-11-22T04:21:13.804Z,957.59
2018-11-22T04:22:13.804Z,957.6
2018-11-22T04:23:13.801Z,957.6
2018-11-22T04:24:13.798Z,957.58
2018-11-22T04:25:13.846Z,957.62
2018-11-22T04:26:13.793Z,957.59
2018-11-22T04:27:13.789Z,957.57
2018-11-22T04:28:13.787Z,957.6
2018-11-22T04:29:13.785Z,957.59
2018-11-22T04:30:13.782Z,957.62
2018-11-22T04:31:13.779Z,957.65
2018-11-22T04:32:13.777Z,957.62
2018-11-22T04:33:13.774Z,957.63
2018-11-22T04:34:13.772Z,957.6
2018-11-22T04:35:13.819Z,957.63
2018-11-22T04:36:13.767Z,957.61
2018-11-22T04:37:13.763Z,957.65
2018-11-22T04:38:13.762Z,957.63
2018-11-22T04:39:13.757Z,957.64
2018-11-22T04:40:13.756Z,957.64
2018-11-22T04:41:13.759Z,957.63
2018-11-22T04:42:13.750Z,957.66
2018-11-22T04:43:13.749Z,957.66
2018-11-22T04:44:13.747Z,957.66
2018-11-22T04:45:13.841Z,957.61
2018-11-22T04:46:13.740Z,957.65
2018-11-22T04:47:13.737Z,957.65
2018-11-22T04:48:13.735Z,957.66
2018-11-22T04:49:13.732Z,957.72
2018-11-22T04:50:13.779Z,957.69
2018-11-22T04:51:13.727Z,957.72
2018-11-22T04:52:13.724Z,957.72
2018-11-22T04:53:13.722Z,957.73
2018-11-22T04:54:13.719Z,957.74
2018-11-22T04:55:13.816Z,957.72
2018-11-22T04:56:13.714Z,957.71
2018-11-22T04:57:13.711Z,957.7
2018-11-22T04:58:13.709Z,957.69
2018-11-22T04:59:13.708Z,957.66
2018-11-22T05:00:13.755Z,957.68
2018-11-22T05:01:13.707Z,957.71
2018-11-22T05:02:13.700Z,957.69
2018-11-22T05:03:13.697Z,957.69
2018-11-22T05:04:13.697Z,957.72
2018-11-22T05:05:13.743Z,957.72
2018-11-22T05:06:13.688Z,957.74
2018-11-22T05:07:13.687Z,957.7
2018-11-22T05:08:13.685Z,957.69
2018-11-22T05:09:13.682Z,957.69
2018-11-22T05:10:13.679Z,957.63
2018-11-22T05:11:13.682Z,957.71
2018-11-22T05:12:13.675Z,957.71
2018-11-22T05:13:13.671Z,957.62
2018-11-22T05:14:13.688Z,957.68
2018-11-22T05:15:13.718Z,957.7
2018-11-22T05:16:13.666Z,957.67
2018-11-22T05:17:13.662Z,957.68
2018-11-22T05:18:13.659Z,957.7
2018-11-22T05:19:13.657Z,957.65
2018-11-22T05:20:13.653Z,957.7
2018-11-22T05:21:13.651Z,957.65
2018-11-22T05:22:13.652Z,957.68
2018-11-22T05:23:13.647Z,957.66
2018-11-22T05:24:13.644Z,957.67
2018-11-22T05:25:13.692Z,957.66
2018-11-22T05:26:13.640Z,957.7
2018-11-22T05:27:13.637Z,957.69
2018-11-22T05:28:13.634Z,957.69
2018-11-22T05:29:13.633Z,957.66
2018-11-22T05:30:13.679Z,957.67
2018-11-22T05:31:13.628Z,957.67
2018-11-22T05:32:13.625Z,957.65
2018-11-22T05:33:13.621Z,957.7
2018-11-22T05:34:13.620Z,957.71
2018-11-22T05:35:13.616Z,957.71
2018-11-22T05:36:13.616Z,957.71
2018-11-22T05:37:13.611Z,957.72
2018-11-22T05:38:13.609Z,957.72
2018-11-22T05:39:13.606Z,957.74
2018-11-22T05:40:13.603Z,957.74
2018-11-22T05:41:13.602Z,957.72
2018-11-22T05:42:13.599Z,957.71
2018-11-22T05:43:13.596Z,957.7
2018-11-22T05:44:13.594Z,957.79
2018-11-22T05:45:13.642Z,957.71
2018-11-22T05:46:13.589Z,957.72
2018-11-22T05:47:13.587Z,957.7
2018-11-22T05:48:13.583Z,957.73
2018-11-22T05:49:13.581Z,957.73
2018-11-22T05:50:13.578Z,957.73
2018-11-22T05:51:13.577Z,957.74
2018-11-22T05:52:13.584Z,957.78
2018-11-22T05:53:13.572Z,957.74
2018-11-22T05:54:13.568Z,957.77
2018-11-22T05:55:13.617Z,957.75
2018-11-22T05:56:13.565Z,957.78
2018-11-22T05:57:13.560Z,957.77
2018-11-22T05:58:13.558Z,957.76
2018-11-22T05:59:13.572Z,957.78
2018-11-22T06:00:13.604Z,957.77
2018-11-22T06:01:16.341Z,957.8
2018-11-22T06:02:13.549Z,957.78
2018-11-22T06:03:13.546Z,957.83
2018-11-22T06:04:13.543Z,957.84
2018-11-22T06:05:13.541Z,957.86
2018-11-22T06:06:13.539Z,957.83
2018-11-22T06:07:13.536Z,957.85
2018-11-22T06:08:13.532Z,957.83
2018-11-22T06:09:13.531Z,957.85
2018-11-22T06:10:13.529Z,957.87
2018-11-22T06:11:13.526Z,957.85
2018-11-22T06:12:13.523Z,957.85
2018-11-22T06:13:13.520Z,957.85
2018-11-22T06:14:13.519Z,957.84
2018-11-22T06:15:13.566Z,957.8
2018-11-22T06:16:13.514Z,957.81
2018-11-22T06:17:13.509Z,957.79
2018-11-22T06:18:14.142Z,957.78
2018-11-22T06:19:13.505Z,957.78
2018-11-22T06:20:13.502Z,957.81
2018-11-22T06:21:13.500Z,957.79
2018-11-22T06:22:13.498Z,957.82
2018-11-22T06:23:13.495Z,957.84
2018-11-22T06:24:13.492Z,957.87
2018-11-22T06:25:13.505Z,957.82
2018-11-22T06:26:13.487Z,957.86
2018-11-22T06:27:13.483Z,957.86
2018-11-22T06:28:13.481Z,957.87
2018-11-22T06:29:13.478Z,957.83
2018-11-22T06:30:13.525Z,957.91
2018-11-22T06:31:13.474Z,957.87
2018-11-22T06:32:13.469Z,957.91
2018-11-22T06:33:13.468Z,957.89
2018-11-22T06:34:13.465Z,957.92
2018-11-22T06:35:13.462Z,957.94
2018-11-22T06:36:13.466Z,957.93
2018-11-22T06:37:13.457Z,957.93
2018-11-22T06:38:13.455Z,957.96
2018-11-22T06:39:13.453Z,957.9
2018-11-22T06:40:13.451Z,957.99
2018-11-22T06:41:13.447Z,957.97
2018-11-22T06:42:13.444Z,958.02
2018-11-22T06:43:13.441Z,958
2018-11-22T06:44:13.439Z,958.01
2018-11-22T06:45:13.551Z,958.04
2018-11-22T06:46:13.434Z,958.02
2018-11-22T06:47:13.432Z,958.03
2018-11-22T06:48:13.427Z,958.04
2018-11-22T06:49:13.424Z,958.02
2018-11-22T06:50:13.422Z,958.07
2018-11-22T06:51:13.422Z,958.03
2018-11-22T06:52:13.416Z,958.03
2018-11-22T06:53:13.416Z,958.07
2018-11-22T06:54:13.412Z,958.07
2018-11-22T06:55:13.461Z,958.06
2018-11-22T06:56:13.408Z,958.06
2018-11-22T06:57:13.405Z,958.1
2018-11-22T06:58:13.402Z,958
2018-11-22T06:59:13.397Z,958.06
2018-11-22T07:00:13.396Z,958.02
2018-11-22T07:01:13.395Z,958.01
2018-11-22T07:02:13.391Z,958.02
2018-11-22T07:03:13.389Z,957.99
2018-11-22T07:04:13.387Z,957.97
2018-11-22T07:05:13.384Z,957.99
2018-11-22T07:06:13.383Z,957.98
2018-11-22T07:07:13.377Z,958.02
2018-11-22T07:08:13.376Z,958.01
2018-11-22T07:09:13.373Z,958.04
2018-11-22T07:10:13.472Z,958.01
2018-11-22T07:11:13.376Z,958.07
2018-11-22T07:12:13.366Z,958.04
2018-11-22T07:13:13.364Z,958.06
2018-11-22T07:14:13.360Z,958.1
2018-11-22T07:15:13.359Z,958.1
2018-11-22T07:16:13.355Z,958.08
2018-11-22T07:17:13.992Z,958.07
2018-11-22T07:18:13.350Z,958.08
2018-11-22T07:19:13.349Z,958.11
2018-11-22T07:20:13.346Z,958.1
2018-11-22T07:21:13.342Z,958.12
2018-11-22T07:22:18.829Z,958.09
2018-11-22T07:23:13.345Z,958.12
2018-11-22T07:24:13.337Z,958.09
2018-11-22T07:25:13.433Z,958.12
2018-11-22T07:26:13.331Z,958.13
2018-11-22T07:27:13.330Z,958.1
2018-11-22T07:28:13.328Z,958.14
2018-11-22T07:29:13.325Z,958.12
2018-11-22T07:30:13.372Z,958.14
2018-11-22T07:31:13.319Z,958.1
2018-11-22T07:32:13.316Z,958.11
2018-11-22T07:33:13.315Z,958.08
2018-11-22T07:34:13.311Z,958.09
2018-11-22T07:35:13.310Z,958.07
2018-11-22T07:36:13.321Z,958.05
2018-11-22T07:37:13.304Z,958.11
2018-11-22T07:38:13.301Z,958.08
2018-11-22T07:39:13.300Z,958.11
2018-11-22T07:40:13.297Z,958.12
2018-11-22T07:41:13.293Z,958.14
2018-11-22T07:42:13.292Z,958.13
2018-11-22T07:43:13.287Z,958.15
2018-11-22T07:44:13.285Z,958.11
2018-11-22T07:45:13.332Z,958.14
2018-11-22T07:46:13.281Z,958.12
2018-11-22T07:47:13.282Z,958.11
2018-11-22T07:48:13.276Z,958.14
2018-11-22T07:49:13.274Z,958.19
2018-11-22T07:50:13.371Z,958.19
2018-11-22T07:51:13.271Z,958.19
2018-11-22T07:52:13.265Z,958.19
2018-11-22T07:53:13.263Z,958.16
2018-11-22T07:54:13.260Z,958.16
2018-11-22T07:55:13.257Z,958.14
2018-11-22T07:56:13.254Z,958.15
2018-11-22T07:57:13.252Z,958.15
2018-11-22T07:58:13.252Z,958.15
2018-11-22T07:59:13.246Z,958.21
2018-11-22T08:00:13.296Z,958.21
2018-11-22T08:01:13.242Z,958.24
2018-11-22T08:02:13.240Z,958.19
2018-11-22T08:03:13.237Z,958.2
2018-11-22T08:04:13.235Z,958.17
2018-11-22T08:05:13.332Z,958.21
2018-11-22T08:06:13.230Z,958.19
2018-11-22T08:07:13.228Z,958.24
2018-11-22T08:08:13.225Z,958.2
2018-11-22T08:09:13.221Z,958.21
2018-11-22T08:10:13.220Z,958.18
2018-11-22T08:11:13.219Z,958.19
2018-11-22T08:12:13.214Z,958.19
2018-11-22T08:13:13.213Z,958.23
2018-11-22T08:14:13.209Z,958.25
2018-11-22T08:15:13.262Z,958.23
2018-11-22T08:16:13.205Z,958.3
2018-11-22T08:17:13.202Z,958.27
2018-11-22T08:18:13.203Z,958.31
2018-11-22T08:19:13.198Z,958.28
2018-11-22T08:20:13.246Z,958.27
2018-11-22T08:21:13.195Z,958.28
2018-11-22T08:22:13.190Z,958.31
2018-11-22T08:23:13.188Z,958.34
2018-11-22T08:24:13.190Z,958.35
2018-11-22T08:25:13.183Z,958.36
2018-11-22T08:26:13.180Z,958.34
2018-11-22T08:27:13.175Z,958.42
2018-11-22T08:28:13.172Z,958.38
2018-11-22T08:29:13.172Z,958.38
2018-11-22T08:30:13.218Z,958.39
2018-11-22T08:31:13.165Z,958.4
2018-11-22T08:32:13.166Z,958.41
2018-11-22T08:33:13.164Z,958.43
2018-11-22T08:34:13.169Z,958.42
2018-11-22T08:35:13.259Z,958.42
2018-11-22T08:36:13.157Z,958.45
2018-11-22T08:37:13.155Z,958.45
2018-11-22T08:38:13.153Z,958.41
2018-11-22T08:39:13.149Z,958.46
2018-11-22T08:40:13.197Z,958.46
2018-11-22T08:41:13.147Z,958.47
2018-11-22T08:42:13.144Z,958.42
2018-11-22T08:43:13.142Z,958.43
2018-11-22T08:44:13.142Z,958.52
2018-11-22T08:45:13.186Z,958.47
2018-11-22T08:46:13.135Z,958.47
2018-11-22T08:47:13.171Z,958.44
2018-11-22T08:48:13.133Z,958.45
2018-11-22T08:49:13.129Z,958.42
2018-11-22T08:50:13.128Z,958.42
2018-11-22T08:51:13.126Z,958.43
2018-11-22T08:52:13.124Z,958.43
2018-11-22T08:53:13.120Z,958.41
2018-11-22T08:54:13.120Z,958.45
2018-11-22T08:55:14.119Z,958.42
2018-11-22T08:56:13.115Z,958.46
2018-11-22T08:57:13.116Z,958.42
2018-11-22T08:58:13.111Z,958.42
2018-11-22T08:59:13.115Z,958.46
2018-11-22T09:00:13.268Z,958.43
2018-11-22T09:01:13.110Z,958.46
2018-11-22T09:02:13.116Z,958.46
2018-11-22T09:03:13.105Z,958.43
2018-11-22T09:04:13.103Z,958.46
2018-11-22T09:05:13.102Z,958.44
2018-11-22T09:06:13.100Z,958.48
2018-11-22T09:07:13.098Z,958.45
2018-11-22T09:08:13.100Z,958.47
2018-11-22T09:09:13.095Z,958.46
2018-11-22T09:10:13.095Z,958.43
2018-11-22T09:11:13.093Z,958.47
2018-11-22T09:12:13.091Z,958.48
2018-11-22T09:13:13.095Z,958.5
2018-11-22T09:14:13.092Z,958.51
2018-11-22T09:15:13.137Z,958.5
2018-11-22T09:16:13.087Z,958.56
2018-11-22T09:17:13.085Z,958.55
2018-11-22T09:18:13.083Z,958.58
2018-11-22T09:19:13.081Z,958.53
2018-11-22T09:20:13.080Z,958.59
2018-11-22T09:21:13.082Z,958.57
2018-11-22T09:22:13.077Z,958.59
2018-11-22T09:23:13.077Z,958.56
2018-11-22T09:24:13.076Z,958.59
2018-11-22T09:25:13.075Z,958.6
2018-11-22T09:26:13.078Z,958.63
2018-11-22T09:27:13.072Z,958.64
2018-11-22T09:28:13.074Z,958.63
2018-11-22T09:29:13.070Z,958.62
2018-11-22T09:30:13.120Z,958.63
2018-11-22T09:31:13.070Z,958.62
2018-11-22T09:32:13.069Z,958.66
2018-11-22T09:33:13.067Z,958.63
2018-11-22T09:34:13.070Z,958.64
2018-11-22T09:35:13.125Z,958.63
2018-11-22T09:36:13.065Z,958.66
2018-11-22T09:37:13.063Z,958.65
2018-11-22T09:38:13.064Z,958.65
2018-11-22T09:39:13.071Z,958.69
2018-11-22T09:40:13.061Z,958.7
2018-11-22T09:41:13.063Z,958.69
2018-11-22T09:42:13.134Z,958.7
2018-11-22T09:43:13.058Z,958.67
2018-11-22T09:44:13.057Z,958.68
2018-11-22T09:45:13.108Z,958.62
2018-11-22T09:46:13.057Z,958.71
2018-11-22T09:47:13.057Z,958.66
2018-11-22T09:48:13.057Z,958.73
2018-11-22T09:49:13.058Z,958.67
2018-11-22T09:50:13.110Z,958.65
2018-11-22T09:51:13.058Z,958.63
2018-11-22T09:52:13.057Z,958.62
2018-11-22T09:53:13.057Z,958.65
2018-11-22T09:54:13.059Z,958.66
2018-11-22T09:55:13.059Z,958.64
2018-11-22T09:56:13.058Z,958.67
2018-11-22T09:57:13.059Z,958.64
2018-11-22T09:58:13.064Z,958.65
2018-11-22T09:59:13.135Z,958.62
2018-11-22T10:00:13.061Z,958.63
2018-11-22T10:01:13.061Z,958.62
2018-11-22T10:02:13.062Z,958.62
2018-11-22T10:03:13.268Z,958.59
2018-11-22T10:04:13.063Z,958.61
2018-11-22T10:05:13.321Z,958.62
2018-11-22T10:06:13.065Z,958.58
2018-11-22T10:07:13.066Z,958.61
2018-11-22T10:08:13.067Z,958.6
2018-11-22T10:09:13.120Z,958.6
2018-11-22T10:10:13.068Z,958.63
2018-11-22T10:11:13.071Z,958.66
2018-11-22T10:12:13.105Z,958.6
2018-11-22T10:13:13.073Z,958.61
2018-11-22T10:14:13.074Z,958.63
2018-11-22T10:15:13.077Z,958.65
2018-11-22T10:16:13.079Z,958.61
2018-11-22T10:17:13.112Z,958.67
2018-11-22T10:18:13.086Z,958.63
2018-11-22T10:19:13.085Z,958.65
2018-11-22T10:20:13.138Z,958.66
2018-11-22T10:21:13.092Z,958.62
2018-11-22T10:22:13.092Z,958.57
2018-11-22T10:23:13.094Z,958.61
2018-11-22T10:24:13.123Z,958.6
2018-11-22T10:25:13.099Z,958.64
2018-11-22T10:26:13.101Z,958.64
2018-11-22T10:27:13.105Z,958.63
2018-11-22T10:28:13.106Z,958.68
2018-11-22T10:29:13.160Z,958.62
2018-11-22T10:30:13.187Z,958.6
2018-11-22T10:31:13.116Z,958.61
2018-11-22T10:32:13.131Z,958.64
2018-11-22T10:33:13.121Z,958.66
2018-11-22T10:34:13.124Z,958.64
2018-11-22T10:35:13.252Z,958.7
2018-11-22T10:36:13.132Z,958.71
2018-11-22T10:37:13.134Z,958.68
2018-11-22T10:38:13.162Z,958.69
2018-11-22T10:39:13.169Z,958.75
2018-11-22T10:40:13.197Z,958.73
2018-11-22T10:41:13.151Z,958.74
2018-11-22T10:42:13.155Z,958.75
2018-11-22T10:43:13.162Z,958.72
2018-11-22T10:44:13.180Z,958.71
2018-11-22T10:45:13.173Z,958.76
2018-11-22T10:46:13.179Z,958.78
2018-11-22T10:47:13.186Z,958.73
2018-11-22T10:48:13.193Z,958.77
2018-11-22T10:49:13.201Z,958.81
2018-11-22T10:50:13.255Z,958.73
2018-11-22T10:51:13.212Z,958.75
2018-11-22T10:52:13.219Z,958.74
2018-11-22T10:53:13.225Z,958.73
2018-11-22T10:54:13.237Z,958.67
2018-11-22T10:55:13.239Z,958.69
2018-11-22T10:56:13.247Z,958.68
2018-11-22T10:57:13.254Z,958.71
2018-11-22T10:58:13.261Z,958.74
2018-11-22T10:59:13.268Z,958.76
2018-11-22T11:00:13.275Z,958.73
2018-11-22T11:01:13.282Z,958.75
2018-11-22T11:02:13.309Z,958.8
2018-11-22T11:03:13.298Z,958.74
2018-11-22T11:04:13.303Z,958.76
2018-11-22T11:05:13.362Z,958.73
2018-11-22T11:06:13.320Z,958.74
2018-11-22T11:07:13.324Z,958.75
2018-11-22T11:08:13.331Z,958.74
2018-11-22T11:09:13.338Z,958.79
2018-11-22T11:10:13.346Z,958.76
2018-11-22T11:11:13.353Z,958.79
2018-11-22T11:12:13.359Z,958.75
2018-11-22T11:13:13.376Z,958.77
2018-11-22T11:14:13.376Z,958.74
2018-11-22T11:15:13.484Z,958.81
2018-11-22T11:16:13.391Z,958.87
2018-11-22T11:17:13.406Z,958.9
2018-11-22T11:18:13.406Z,958.93
2018-11-22T11:19:13.414Z,958.87
2018-11-22T11:20:13.474Z,958.87
2018-11-22T11:21:13.434Z,958.86
2018-11-22T11:22:13.453Z,958.86
2018-11-22T11:23:13.451Z,958.88
2018-11-22T11:24:13.462Z,958.83
2018-11-22T11:25:13.471Z,958.87
2018-11-22T11:26:13.479Z,958.87
2018-11-22T11:27:13.509Z,958.88
2018-11-22T11:28:13.502Z,958.9
2018-11-22T11:29:13.511Z,958.93
2018-11-22T11:30:13.522Z,958.92
2018-11-22T11:31:13.533Z,958.91
2018-11-22T11:32:13.545Z,958.88
2018-11-22T11:33:13.556Z,958.93
2018-11-22T11:34:13.575Z,958.91
2018-11-22T11:35:13.627Z,958.88
2018-11-22T11:36:17.756Z,958.86
2018-11-22T11:37:13.600Z,958.91
2018-11-22T11:38:13.613Z,958.9
2018-11-22T11:39:13.624Z,958.94
2018-11-22T11:40:13.687Z,958.94
2018-11-22T11:41:13.656Z,958.94
2018-11-22T11:42:13.662Z,958.91
2018-11-22T11:43:13.673Z,958.9
2018-11-22T11:44:13.684Z,958.92
2018-11-22T11:45:13.696Z,958.93
2018-11-22T11:46:13.709Z,958.92
2018-11-22T11:47:13.723Z,958.94
2018-11-22T11:48:13.736Z,958.95
2018-11-22T11:49:13.749Z,958.93
2018-11-22T11:50:13.813Z,958.92
2018-11-22T11:51:13.775Z,958.95
2018-11-22T11:52:13.788Z,958.93
2018-11-22T11:53:13.801Z,958.99
2018-11-22T11:54:13.816Z,958.99
2018-11-22T11:55:13.880Z,958.99
2018-11-22T11:56:13.841Z,958.98
2018-11-22T11:57:13.855Z,959.02
2018-11-22T11:58:13.868Z,958.99
2018-11-22T11:59:13.882Z,958.99
2018-11-22T12:00:13.895Z,959.01
2018-11-22T12:01:13.911Z,959.03
2018-11-22T12:02:15.337Z,959.03
2018-11-22T12:03:13.938Z,958.99
2018-11-22T12:04:13.952Z,958.99
2018-11-22T12:05:13.967Z,959
2018-11-22T12:06:14.027Z,958.97
2018-11-22T12:07:13.992Z,958.98
2018-11-22T12:08:14.006Z,958.97
2018-11-22T12:09:14.021Z,958.9
2018-11-22T12:10:14.086Z,958.93
2018-11-22T12:11:14.050Z,958.83
2018-11-22T12:12:14.066Z,958.87
2018-11-22T12:13:14.079Z,958.83
2018-11-22T12:14:14.092Z,958.85
2018-11-22T12:15:14.108Z,958.86
2018-11-22T12:16:14.123Z,958.86
2018-11-22T12:17:14.139Z,958.88
2018-11-22T12:18:14.151Z,958.87
2018-11-22T12:19:14.165Z,958.87
2018-11-22T12:20:14.183Z,958.86
2018-11-22T12:21:14.194Z,958.88
2018-11-22T12:22:14.209Z,958.86
2018-11-22T12:23:14.225Z,958.83
2018-11-22T12:24:14.242Z,958.83
2018-11-22T12:25:14.359Z,958.82
2018-11-22T12:26:14.273Z,958.82
2018-11-22T12:27:14.297Z,958.81
2018-11-22T12:28:14.308Z,958.81
2018-11-22T12:29:14.316Z,958.82
2018-11-22T12:30:14.332Z,958.83
2018-11-22T12:31:14.347Z,958.8
2018-11-22T12:32:14.362Z,958.8
2018-11-22T12:33:14.377Z,958.84
2018-11-22T12:34:14.395Z,958.77
2018-11-22T12:35:14.412Z,958.79
2018-11-22T12:36:14.481Z,958.82
2018-11-22T12:37:14.439Z,958.82
2018-11-22T12:38:14.456Z,958.82
2018-11-22T12:39:14.482Z,958.78
2018-11-22T12:40:14.537Z,958.76
2018-11-22T12:41:14.505Z,958.77
2018-11-22T12:42:14.518Z,958.75
2018-11-22T12:43:14.534Z,958.78
2018-11-22T12:44:14.548Z,958.79
2018-11-22T12:45:14.612Z,958.76
2018-11-22T12:46:14.592Z,958.68
2018-11-22T12:47:14.595Z,958.72
2018-11-22T12:48:14.610Z,958.67
2018-11-22T12:49:14.624Z,958.61
2018-11-22T12:50:14.639Z,958.56
2018-11-22T12:51:14.657Z,958.56
2018-11-22T12:52:14.669Z,958.53
2018-11-22T12:53:14.684Z,958.53
2018-11-22T12:54:14.697Z,958.55
2018-11-22T12:55:14.711Z,958.53
2018-11-22T12:56:14.727Z,958.51
2018-11-22T12:57:14.739Z,958.53
2018-11-22T12:58:14.752Z,958.57
2018-11-22T12:59:14.764Z,958.51
2018-11-22T13:00:14.828Z,958.6
2018-11-22T13:01:14.790Z,958.62